createdAt,value
2023-03-15T00:02:16.122Z,22.9
2023-03-15T00:07:54.217Z,22.5
2023-03-15T00:13:31.632Z,21.9
2023-03-15T00:18:54.244Z,21.8
2023-03-15T00:24:46.620Z,21.8
2023-03-15T00:30:40.330Z,22.8
2023-03-15T00:36:33.413Z,23.1
2023-03-15T00:42:11.282Z,22.4
2023-03-15T00:47:48.106Z,21.9
2023-03-15T00:53:25.812Z,21.4
2023-03-15T00:58:16.918Z,21.1
2023-03-15T01:03:54.713Z,21.1
2023-03-15T01:09:32.515Z,21.1
2023-03-15T01:15:25.148Z,22.2
2023-03-15T01:21:18.437Z,23.2
2023-03-15T01:27:11.328Z,22.7
2023-03-15T01:33:03.154Z,22
2023-03-15T01:38:40.858Z,21.6
2023-03-15T01:44:32.666Z,21.3
2023-03-15T01:50:09.960Z,21.2
2023-03-15T01:55:47.077Z,21.5
2023-03-15T02:01:25.475Z,22.6
2023-03-15T02:06:46.588Z,23.1
2023-03-15T02:12:39.821Z,22.5
2023-03-15T02:18:01.314Z,22
2023-03-15T02:23:55.029Z,21.6
2023-03-15T02:29:48.547Z,21.3
2023-03-15T02:40:48.142Z,21.5
2023-03-15T02:46:41.396Z,22.8
2023-03-15T02:52:18.523Z,23
2023-03-15T02:57:55.892Z,22.5
2023-03-15T03:03:48.765Z,21.9
2023-03-15T03:09:41.138Z,21.4
2023-03-15T03:15:02.776Z,21.3
2023-03-15T03:26:17.296Z,21.8
2023-03-15T03:32:11.605Z,22.5
2023-03-15T03:38:04.251Z,23.1
2023-03-15T03:43:41.894Z,22.4
2023-03-15T03:49:34.725Z,21.9
2023-03-15T03:55:28.234Z,21.5
2023-03-15T04:00:49.851Z,21.3
2023-03-15T04:12:19.565Z,22
2023-03-15T04:17:57.476Z,23.1
2023-03-15T04:23:34.318Z,23.1
2023-03-15T04:29:27.784Z,22.1
2023-03-15T04:35:19.626Z,21.6
2023-03-15T04:41:12.753Z,21.4
2023-03-15T04:46:49.576Z,21.2
2023-03-15T04:52:26.278Z,20.8
2023-03-15T04:58:03.827Z,21.9
2023-03-15T05:03:43.309Z,23.1
2023-03-15T05:09:39.150Z,22.9
2023-03-15T05:15:32.459Z,21.8
2023-03-15T05:20:54.613Z,21.3
2023-03-15T05:26:46.943Z,20.9
2023-03-15T05:38:17.193Z,21.1
2023-03-15T05:44:09.342Z,20.9
2023-03-15T05:50:02.016Z,21.6
2023-03-15T05:55:57.612Z,22.4
2023-03-15T06:01:34.912Z,22.5
2023-03-15T06:07:13.337Z,21.8
2023-03-15T06:18:44.139Z,20.9
2023-03-15T06:24:38.908Z,21
2023-03-15T06:30:33.393Z,21.1
2023-03-15T06:36:10.812Z,22.6
2023-03-15T06:42:19.041Z,23.3
2023-03-15T06:48:12.652Z,22.5
2023-03-15T06:54:20.857Z,21.9
2023-03-15T07:00:14.603Z,21.7
2023-03-15T07:05:53.431Z,22.7
2023-03-15T07:11:45.742Z,22.6
2023-03-15T07:17:40.029Z,21.8
2023-03-15T07:23:40.570Z,21.3
2023-03-15T07:29:33.219Z,21.9
2023-03-15T07:35:30.014Z,22.9
2023-03-15T07:41:23.075Z,22.1
2023-03-15T07:47:17.612Z,21.7
2023-03-15T07:53:11.654Z,21.5
2023-03-15T07:58:54.457Z,21.4
2023-03-15T08:04:35.631Z,22.4
2023-03-15T08:10:00.532Z,22.6
2023-03-15T08:15:37.980Z,22.1
2023-03-15T08:21:33.229Z,21.8
2023-03-15T08:27:26.468Z,21.6
2023-03-15T08:33:20.486Z,21.4
2023-03-15T08:39:13.858Z,22.6
2023-03-15T08:45:09.461Z,22.6
2023-03-15T08:51:20.841Z,21.9
2023-03-15T08:57:13.240Z,21.6
2023-03-15T09:03:10.648Z,21.5
2023-03-15T09:08:50.304Z,22.1
2023-03-15T09:14:43.600Z,22.9
2023-03-15T09:20:35.911Z,22.1
2023-03-15T09:26:36.573Z,21.9
2023-03-15T09:32:29.251Z,21.7
2023-03-15T09:38:27.040Z,22.6
2023-03-15T09:44:18.634Z,23
2023-03-15T09:49:55.676Z,22.3
2023-03-15T09:55:49.404Z,22
2023-03-15T10:01:27.657Z,21.8
2023-03-15T10:07:21.401Z,21.6
2023-03-15T10:13:15.141Z,21.5
2023-03-15T10:19:07.816Z,22.1
2023-03-15T10:25:00.836Z,23.1
2023-03-15T10:30:54.383Z,22.3
2023-03-15T10:37:13.372Z,22
2023-03-15T10:43:12.856Z,21.8
2023-03-15T10:49:23.266Z,21.6
2023-03-15T10:55:21.181Z,21.4
2023-03-15T11:01:24.089Z,22.1
2023-03-15T11:07:18.892Z,23
2023-03-15T11:13:11.902Z,22.1
2023-03-15T11:19:04.972Z,21.8
2023-03-15T11:24:58.346Z,21.6
2023-03-15T11:36:39.078Z,20.8
2023-03-15T11:42:56.171Z,20.6
2023-03-15T11:48:33.142Z,22.4
2023-03-15T11:54:10.354Z,22.2
2023-03-15T11:59:50.471Z,21.8
2023-03-15T12:05:51.172Z,21.6
2023-03-15T12:11:28.921Z,21.4
2023-03-15T12:17:22.928Z,21.3
2023-03-15T12:28:34.573Z,22.4
2023-03-15T12:34:13.931Z,22.4
2023-03-15T12:39:50.601Z,21.8
2023-03-15T12:45:15.905Z,21.6
2023-03-15T12:50:54.263Z,21.4
2023-03-15T12:56:42.321Z,21.3
2023-03-15T13:08:08.732Z,21.4
2023-03-15T13:13:45.614Z,22.6
2023-03-15T13:19:22.607Z,22
2023-03-15T13:25:08.074Z,21.3
2023-03-15T13:30:44.424Z,20
2023-03-15T13:36:22.218Z,20.6
2023-03-15T13:41:59.557Z,20.8
2023-03-15T13:47:36.900Z,20.8
2023-03-15T13:53:15.136Z,21.6
2023-03-15T13:59:18.613Z,22.7
2023-03-15T14:04:57.411Z,21.9
2023-03-15T14:10:18.980Z,21.4
2023-03-15T14:15:56.548Z,21.3
2023-03-15T14:21:50.915Z,21.1
2023-03-15T14:27:28.713Z,20.9
2023-03-15T14:33:21.355Z,20.8
2023-03-15T14:39:14.646Z,21.8
2023-03-15T14:44:52.024Z,22.3
2023-03-15T14:50:57.297Z,21.8
2023-03-15T14:56:52.422Z,21.4
2023-03-15T15:02:45.065Z,21.2
2023-03-15T15:08:37.139Z,20.9
2023-03-15T15:14:45.326Z,20.8
2023-03-15T15:20:56.661Z,21.6
2023-03-15T15:26:47.485Z,22.4
2023-03-15T15:32:48.895Z,21.7
2023-03-15T15:38:44.256Z,21.4
2023-03-15T15:44:39.452Z,21.2
2023-03-15T15:50:15.952Z,21.1
2023-03-15T15:56:07.839Z,20.9
2023-03-15T16:01:59.328Z,20.8
2023-03-15T16:07:55.316Z,22.1
2023-03-15T16:13:47.554Z,22.1
2023-03-15T16:19:41.016Z,21.5
2023-03-15T16:25:33.398Z,21.4
2023-03-15T16:37:14.298Z,20.9
2023-03-15T16:42:51.695Z,20.7
2023-03-15T16:48:44.476Z,21.3
2023-03-15T16:54:57.883Z,22.3
2023-03-15T17:00:53.611Z,21.7
2023-03-15T17:06:46.083Z,21.4
2023-03-15T17:12:38.801Z,21.2
2023-03-15T17:18:31.454Z,21
2023-03-15T17:24:27.187Z,20.7
2023-03-15T17:30:21.052Z,20.5
2023-03-15T17:36:13.423Z,21.7
2023-03-15T17:41:49.738Z,21.8
2023-03-15T17:52:48.924Z,20.9
2023-03-15T17:58:49.059Z,20.8
2023-03-15T18:04:50.280Z,20.5
2023-03-15T18:10:57.229Z,21.8
2023-03-15T18:16:50.067Z,21.5
2023-03-15T18:22:42.841Z,21.1
2023-03-15T18:28:34.998Z,20.8
2023-03-15T18:34:13.254Z,20.6
2023-03-15T18:39:51.043Z,20.6
2023-03-15T18:45:43.701Z,20.4
2023-03-15T18:51:43.861Z,20.9
2023-03-15T18:57:05.618Z,22.4
2023-03-15T19:02:30.276Z,21.8
2023-03-15T19:08:07.849Z,21.2
2023-03-15T19:13:46.090Z,20.9
2023-03-15T19:19:07.564Z,20.8
2023-03-15T19:24:43.956Z,20.5
2023-03-15T19:30:37.144Z,20.3
2023-03-15T19:36:30.814Z,20.6
2023-03-15T19:41:52.189Z,22.2
2023-03-15T19:47:14.298Z,21.5
2023-03-15T19:52:52.291Z,20.9
2023-03-15T19:58:31.769Z,20.9
2023-03-15T20:04:28.690Z,20.6
2023-03-15T20:10:06.666Z,20.5
2023-03-15T20:15:45.906Z,20.3
2023-03-15T20:21:23.357Z,21.1
2023-03-15T20:27:01.402Z,22.2
2023-03-15T20:32:39.931Z,21.4
2023-03-15T20:38:18.732Z,20.9
2023-03-15T20:43:41.214Z,20.9
2023-03-15T20:49:03.035Z,20.6
2023-03-15T20:54:26.119Z,20.4
2023-03-15T21:04:56.199Z,22.2
2023-03-15T21:10:49.168Z,21.5
2023-03-15T21:16:45.170Z,21.1
2023-03-15T21:21:54.012Z,20.6
2023-03-15T21:27:44.207Z,20.6
2023-03-15T21:33:38.515Z,20.3
2023-03-15T21:39:30.194Z,20.1
2023-03-15T21:45:07.518Z,19.9
2023-03-15T21:55:35.910Z,22.2
2023-03-15T22:01:14.493Z,22
2023-03-15T22:06:54.067Z,21.4
2023-03-15T22:12:15.745Z,20.8
2023-03-15T22:18:19.491Z,20.5
2023-03-15T22:23:41.153Z,20.3
2023-03-15T22:29:17.970Z,20.1
2023-03-15T22:34:40.439Z,19.9
2023-03-15T22:40:17.721Z,20.4
2023-03-15T22:45:54.338Z,22.1
2023-03-15T22:51:32.164Z,22.3
2023-03-15T22:56:53.760Z,21.5
2023-03-15T23:02:31.200Z,20.9
2023-03-15T23:08:24.693Z,20.6
2023-03-15T23:13:42.468Z,20.3
2023-03-15T23:18:49.038Z,19.9
2023-03-15T23:23:56.248Z,19.4
2023-03-15T23:28:47.185Z,19.2
2023-03-15T23:34:09.477Z,20.4
2023-03-15T23:39:49.175Z,21.2
2023-03-15T23:45:27.474Z,21
2023-03-15T23:51:20.888Z,21.2
2023-03-15T23:56:58.356Z,21.3
